Forreston, Texas
Current Conditions -  °F | °C
As of 2:55 AM on Saturday 25 Oct 2014 (Local Time) from KJWY Reporting Station
Clear Clear  
Wind Chill: 63°   Ceiling: Unl
Heat Index: 63°   Visibility: 10mi
Dew Point: 58°   Wind: 5mph
Humidity: 83%   Direction: 170°S
Pressure: 30.12"   Gusts: NA
Location:  32.26°N, 96.87°W
Report Text: KJWY 250755Z AUTO 17004KT 10SM CLR 17/15 A3012 RMK AO2 T01740145
Loading
Personal Weather Stations






























Interactive Weather Map
Tropical Storm Tracking
New forecast layout! Learn more

10-Day Weather Forecast

Advertisements
Track Severe Weather on mobile